Time;durP1;ratioP1;P1;durP2;ratioP2;P2;SDS_P1;SDS_P2;PMS_P1;PMS_P2;Temp;Humidity;BMP_temperature;BMP_pressure;BME280_temperature;BME280_humidity;BME280_pressure;Samples;Min_cycle;Max_cycle;Signal;HPM_P1;HPM_P2
2022/06/16 00:01:53;;;;;;;4.00;2.47;;;21.70;66.70;;;;;;5071692;28;20203;-77
2022/06/16 00:04:24;;;;;;;3.78;2.60;;;21.70;66.80;;;;;;5074036;28;20177;-80
2022/06/16 00:06:53;;;;;;;3.72;2.60;;;21.60;67.10;;;;;;5071705;28;20197;-79
2022/06/16 00:09:19;;;;;;;4.47;2.97;;;21.60;67.30;;;;;;5076203;28;20188;-80
2022/06/16 00:11:49;;;;;;;3.47;2.42;;;21.50;67.40;;;;;;5065018;28;20180;-78
2022/06/16 00:14:16;;;;;;;4.38;2.65;;;21.50;68.00;;;;;;5060714;28;20287;-78
2022/06/16 00:16:45;;;;;;;3.28;2.35;;;21.40;67.80;;;;;;5074398;28;20181;-79
2022/06/16 00:19:15;;;;;;;3.97;2.53;;;21.40;68.30;;;;;;5062492;28;20416;-79
2022/06/16 00:21:41;;;;;;;3.08;2.45;;;21.40;68.20;;;;;;5064409;28;20196;-79
2022/06/16 00:24:10;;;;;;;3.65;2.50;;;21.30;68.30;;;;;;5072381;28;20191;-77
2022/06/16 00:26:37;;;;;;;4.43;3.08;;;21.30;68.60;;;;;;5073422;28;20204;-80
2022/06/16 00:29:05;;;;;;;3.47;2.72;;;21.30;68.80;;;;;;5074394;28;20271;-80
2022/06/16 00:31:35;;;;;;;4.05;2.60;;;21.20;68.70;;;;;;5074102;28;20222;-78
2022/06/16 00:34:00;;;;;;;4.03;2.45;;;21.20;69.30;;;;;;5069967;28;20200;-80
2022/06/16 00:36:28;;;;;;;4.90;2.58;;;21.10;68.80;;;;;;5070854;28;20210;-80
2022/06/16 00:38:54;;;;;;;4.03;2.63;;;21.10;69.00;;;;;;5068378;28;20241;-76
2022/06/16 00:41:19;;;;;;;3.63;2.55;;;21.00;69.20;;;;;;5073797;28;20287;-77
2022/06/16 00:43:47;;;;;;;3.85;2.55;;;21.00;69.40;;;;;;5071075;28;20191;-79
2022/06/16 00:46:18;;;;;;;3.08;2.53;;;20.90;69.60;;;;;;5073736;28;20173;-78
2022/06/16 00:48:56;;;;;;;4.10;2.50;;;20.90;70.00;;;;;;5072444;28;20281;-80
2022/06/16 00:51:45;;;;;;;5.10;2.50;;;20.90;70.40;;;;;;5070288;28;20191;-78
2022/06/16 00:54:33;;;;;;;4.15;2.35;;;20.90;71.10;;;;;;5072783;28;20259;-78
2022/06/16 00:57:06;;;;;;;3.03;1.92;;;20.80;70.40;;;;;;5069579;28;20171;-76
2022/06/16 00:59:34;;;;;;;3.35;2.05;;;20.80;70.40;;;;;;5076341;28;20179;-80
2022/06/16 01:02:00;;;;;;;4.22;2.05;;;20.80;70.30;;;;;;5073767;28;20188;-79
2022/06/16 01:07:14;;;;;;;3.55;1.90;;;20.80;70.40;;;;;;5070005;28;20188;-80
2022/06/16 01:09:41;;;;;;;3.70;2.13;;;20.80;70.50;;;;;;5074396;28;20239;-79
2022/06/16 01:16:08;;;;;;;5.70;1.77;;;20.80;71.50;;;;;;5065998;28;20215;-79
2022/06/16 01:18:48;;;;;;;2.60;1.80;;;20.80;71.50;;;;;;5072768;28;20187;-80
2022/06/16 01:21:35;;;;;;;2.95;1.95;;;20.80;71.30;;;;;;5069220;28;20252;-80
2022/06/16 01:24:19;;;;;;;2.63;1.75;;;20.80;72.10;;;;;;5095351;28;20176;-79
2022/06/16 01:26:56;;;;;;;2.35;1.65;;;20.80;71.00;;;;;;5072365;28;20169;-77
2022/06/16 01:29:55;;;;;;;2.88;1.80;;;20.80;71.10;;;;;;5065946;28;20227;-78
2022/06/16 01:33:15;;;;;;;2.85;1.73;;;20.80;71.30;;;;;;5089227;28;20180;-79
2022/06/16 01:35:48;;;;;;;2.67;1.90;;;20.80;71.10;;;;;;4999465;28;20185;-78
2022/06/16 01:39:03;;;;;;;2.97;1.52;;;20.80;70.60;;;;;;5034981;28;20582;-76
2022/06/16 01:41:51;;;;;;;2.20;1.65;;;20.80;72.10;;;;;;5012088;28;20200;-79
2022/06/16 01:44:32;;;;;;;2.97;1.90;;;20.70;71.80;;;;;;5015045;28;20210;-78
2022/06/16 01:47:05;;;;;;;2.90;1.58;;;20.70;72.50;;;;;;5059897;28;20189;-79
2022/06/16 01:49:39;;;;;;;2.50;1.90;;;20.70;71.40;;;;;;5059534;28;20194;-78
2022/06/16 01:52:45;;;;;;;4.18;1.60;;;20.70;71.40;;;;;;5069615;28;20209;-77
2022/06/16 01:55:15;;;;;;;3.78;1.90;;;20.70;71.50;;;;;;5059048;28;20263;-79
2022/06/16 01:58:00;;;;;;;2.03;1.67;;;20.60;71.20;;;;;;5076178;28;20494;-79
2022/06/16 02:00:29;;;;;;;2.35;1.80;;;20.60;71.80;;;;;;5073671;28;20209;-80
2022/06/16 02:03:06;;;;;;;3.35;1.80;;;20.60;71.60;;;;;;5068675;28;20181;-79
2022/06/16 02:05:42;;;;;;;3.80;1.77;;;20.50;72.10;;;;;;5067459;28;20267;-78
2022/06/16 02:08:15;;;;;;;4.43;1.80;;;20.50;72.10;;;;;;5063554;28;20192;-77
2022/06/16 02:10:56;;;;;;;2.53;1.50;;;20.50;72.30;;;;;;5078860;28;20177;-80
2022/06/16 02:13:26;;;;;;;2.05;1.48;;;20.50;72.80;;;;;;5084829;28;20177;-75
2022/06/16 02:15:58;;;;;;;3.78;1.70;;;20.40;72.40;;;;;;5082117;28;20264;-80
2022/06/16 02:18:34;;;;;;;2.75;1.75;;;20.40;72.60;;;;;;5080480;28;20196;-80
2022/06/16 02:21:35;;;;;;;3.28;1.92;;;20.40;72.50;;;;;;5079654;28;20580;-79
2022/06/16 02:24:10;;;;;;;2.70;1.90;;;20.40;72.90;;;;;;5073905;28;20188;-80
2022/06/16 02:26:37;;;;;;;2.65;1.73;;;20.40;73.10;;;;;;5075862;28;20211;-78
2022/06/16 02:29:33;;;;;;;2.38;1.80;;;20.30;72.80;;;;;;5079649;28;20184;-79
2022/06/16 02:32:08;;;;;;;2.67;1.80;;;20.30;73.50;;;;;;5080656;28;20279;-77
2022/06/16 02:34:37;;;;;;;2.53;1.88;;;20.30;73.70;;;;;;5079763;28;20196;-80
2022/06/16 02:37:31;;;;;;;2.97;1.90;;;20.30;73.50;;;;;;5077959;28;20169;-77
2022/06/16 02:40:08;;;;;;;3.22;1.83;;;20.20;74.50;;;;;;5091409;28;20191;-79
2022/06/16 02:42:46;;;;;;;3.22;1.75;;;20.20;74.10;;;;;;5072247;28;20181;-79
2022/06/16 02:45:21;;;;;;;2.65;1.90;;;20.20;73.60;;;;;;5077438;28;20291;-77
2022/06/16 02:47:59;;;;;;;2.80;2.15;;;20.20;74.40;;;;;;5083782;28;20269;-78
2022/06/16 02:50:55;;;;;;;2.53;2.03;;;20.10;73.80;;;;;;5071073;28;20535;-80
2022/06/16 02:53:45;;;;;;;3.00;2.17;;;20.10;75.20;;;;;;5074850;28;20176;-75
2022/06/16 02:56:34;;;;;;;3.10;2.28;;;20.10;74.60;;;;;;5072822;28;20170;-75
2022/06/16 02:59:13;;;;;;;3.90;2.42;;;20.00;75.60;;;;;;5071710;28;20458;-81
2022/06/16 03:01:39;;;;;;;3.65;2.53;;;19.90;75.00;;;;;;5075239;28;20271;-80
2022/06/16 03:04:04;;;;;;;3.22;2.58;;;19.90;74.70;;;;;;5073692;28;20181;-80
2022/06/16 03:06:32;;;;;;;4.65;2.88;;;19.80;74.80;;;;;;5074649;28;20268;-71
2022/06/16 03:08:58;;;;;;;3.72;2.45;;;19.70;75.60;;;;;;5063078;28;20186;-78
2022/06/16 03:11:28;;;;;;;3.67;2.70;;;19.60;75.30;;;;;;5072707;28;20192;-77
2022/06/16 03:13:57;;;;;;;4.28;2.67;;;19.50;75.60;;;;;;5075097;28;20169;-78
2022/06/16 03:16:23;;;;;;;4.55;2.88;;;19.40;75.90;;;;;;5073997;28;20172;-79
2022/06/16 03:18:49;;;;;;;4.18;2.78;;;19.30;76.30;;;;;;5074193;28;20196;-81
2022/06/16 03:21:15;;;;;;;5.22;3.13;;;19.20;76.60;;;;;;5074879;28;20177;-80
2022/06/16 03:23:41;;;;;;;5.40;2.78;;;19.20;77.10;;;;;;5069889;28;20237;-79
2022/06/16 03:26:08;;;;;;;4.95;3.10;;;19.10;77.30;;;;;;5075042;28;20192;-79
2022/06/16 03:28:35;;;;;;;3.90;2.75;;;19.10;77.50;;;;;;5074887;28;20212;-77
2022/06/16 03:31:02;;;;;;;4.35;2.67;;;19.00;77.80;;;;;;5074399;28;20189;-79
2022/06/16 03:33:28;;;;;;;5.35;3.03;;;18.90;77.90;;;;;;5078064;28;20176;-80
2022/06/16 03:35:56;;;;;;;3.47;2.47;;;18.90;78.20;;;;;;5070265;28;20181;-78
2022/06/16 03:40:53;;;;;;;3.83;2.85;;;18.80;78.80;;;;;;5075388;28;20195;-79
2022/06/16 03:43:19;;;;;;;4.38;2.85;;;18.80;79.30;;;;;;5071598;28;20185;-80
2022/06/16 03:45:47;;;;;;;2.78;2.45;;;18.70;79.30;;;;;;5074888;28;20183;-79
2022/06/16 03:48:13;;;;;;;3.03;2.58;;;18.70;79.70;;;;;;5064882;28;20220;-80
2022/06/16 03:50:41;;;;;;;3.35;2.30;;;18.70;80.10;;;;;;5070786;28;20193;-78
2022/06/16 03:53:07;;;;;;;3.95;2.33;;;18.70;80.40;;;;;;5073569;28;20181;-79
2022/06/16 03:55:33;;;;;;;6.05;2.58;;;18.70;80.60;;;;;;5074467;28;20184;-79
2022/06/16 03:57:59;;;;;;;4.13;2.40;;;18.70;80.90;;;;;;5067668;28;20197;-79
2022/06/16 04:00:25;;;;;;;3.42;2.38;;;18.70;81.20;;;;;;5067815;28;20281;-80
2022/06/16 04:03:59;;;;;;;3.85;2.80;;;18.60;81.40;;;;;;5073870;28;20199;-79
2022/06/16 04:05:39;;;;;;;4.15;2.80;;;18.70;81.80;;;;;;5076086;28;20188;-80
2022/06/16 04:08:08;;;;;;;4.50;3.17;;;18.70;82.00;;;;;;5081621;28;20211;-79
2022/06/16 04:10:36;;;;;;;3.83;2.78;;;18.70;82.20;;;;;;5064629;28;20172;-79
2022/06/16 04:13:02;;;;;;;3.10;2.60;;;18.70;82.30;;;;;;5074003;28;20548;-79
2022/06/16 04:15:33;;;;;;;3.05;2.45;;;18.70;82.90;;;;;;5073270;28;20199;-79
2022/06/16 04:18:01;;;;;;;3.50;2.42;;;18.70;83.40;;;;;;5072819;28;20424;-80
2022/06/16 04:20:27;;;;;;;3.05;2.33;;;18.70;83.90;;;;;;5069035;28;20177;-80
2022/06/16 04:22:52;;;;;;;3.65;2.30;;;18.70;84.40;;;;;;5072201;28;20218;-79
2022/06/16 04:25:23;;;;;;;3.85;2.38;;;18.80;84.50;;;;;;5073630;28;20188;-80
2022/06/16 04:27:49;;;;;;;2.55;2.20;;;18.80;85.20;;;;;;5070579;28;20208;-80
2022/06/16 04:30:17;;;;;;;3.25;2.40;;;18.80;84.80;;;;;;5060214;28;20185;-80
2022/06/16 04:32:43;;;;;;;3.65;2.50;;;18.80;85.70;;;;;;5073953;28;20177;-79
2022/06/16 04:35:09;;;;;;;3.22;2.20;;;18.90;85.50;;;;;;5063005;28;20196;-80
2022/06/16 04:37:37;;;;;;;4.43;2.38;;;18.90;85.80;;;;;;5070975;28;20173;-79
2022/06/16 04:40:06;;;;;;;3.33;2.25;;;18.90;86.00;;;;;;5070112;28;20173;-80
2022/06/16 04:42:31;;;;;;;3.25;2.20;;;18.90;86.80;;;;;;5073585;28;20238;-79
2022/06/16 04:44:57;;;;;;;4.68;2.63;;;18.90;86.90;;;;;;5073762;28;20176;-79
2022/06/16 04:47:25;;;;;;;3.92;2.35;;;18.90;87.30;;;;;;5073792;28;20184;-79
2022/06/16 04:49:51;;;;;;;3.28;2.35;;;18.90;87.40;;;;;;5070013;28;20227;-79
2022/06/16 04:52:17;;;;;;;5.35;3.00;;;18.90;87.50;;;;;;5073625;28;20192;-67
2022/06/16 04:54:47;;;;;;;3.97;2.97;;;18.90;89.00;;;;;;5073431;28;20231;-69
2022/06/16 04:57:13;;;;;;;5.20;2.67;;;18.90;89.20;;;;;;5073060;28;20267;-69
2022/06/16 04:59:42;;;;;;;4.20;2.70;;;18.90;89.00;;;;;;5074071;28;20271;-68
2022/06/16 05:02:07;;;;;;;3.67;2.25;;;18.90;89.40;;;;;;5067655;28;20177;-68
2022/06/16 05:04:35;;;;;;;4.65;2.50;;;18.90;89.40;;;;;;5069025;28;20171;-69
2022/06/16 05:07:01;;;;;;;3.03;2.38;;;18.90;90.10;;;;;;5074655;28;20203;-67
2022/06/16 05:09:27;;;;;;;2.85;2.53;;;18.90;90.10;;;;;;5072861;28;20227;-68
2022/06/16 05:11:53;;;;;;;2.83;2.25;;;18.90;90.40;;;;;;5072283;28;20172;-69
2022/06/16 05:14:20;;;;;;;3.92;2.22;;;18.90;90.20;;;;;;5067774;28;20195;-68
2022/06/16 05:16:47;;;;;;;2.92;2.20;;;19.00;90.50;;;;;;5073655;28;20180;-68
2022/06/16 05:19:13;;;;;;;3.75;2.08;;;19.00;90.30;;;;;;5072649;28;20176;-68
2022/06/16 05:21:39;;;;;;;4.20;2.55;;;19.00;90.50;;;;;;5072097;28;20215;-69
2022/06/16 05:24:04;;;;;;;4.38;2.47;;;19.00;90.60;;;;;;5072739;28;20187;-69
2022/06/16 05:26:30;;;;;;;4.25;2.30;;;19.10;90.60;;;;;;5073117;28;20203;-69
2022/06/16 05:28:58;;;;;;;2.40;1.85;;;19.10;90.60;;;;;;5073489;28;20287;-69
2022/06/16 05:31:29;;;;;;;2.67;2.30;;;19.10;90.70;;;;;;5076036;28;20187;-69
2022/06/16 05:33:55;;;;;;;4.65;2.40;;;19.20;90.80;;;;;;5081064;28;20266;-67
2022/06/16 05:36:23;;;;;;;4.70;2.17;;;19.20;90.70;;;;;;5077055;28;20172;-69
2022/06/16 05:38:48;;;;;;;2.42;2.10;;;19.20;90.70;;;;;;5076725;28;20185;-69
2022/06/16 05:41:18;;;;;;;3.78;2.15;;;19.20;90.70;;;;;;5077972;28;20461;-68
2022/06/16 05:43:46;;;;;;;5.15;2.70;;;19.30;91.10;;;;;;5076887;28;20195;-68
2022/06/16 05:46:18;;;;;;;3.85;2.40;;;19.30;91.10;;;;;;5076584;28;20265;-68
2022/06/16 05:48:46;;;;;;;4.43;2.20;;;19.30;91.30;;;;;;5075501;28;20192;-69
2022/06/16 05:51:14;;;;;;;4.25;2.20;;;19.30;91.10;;;;;;5074123;28;20169;-69
2022/06/16 05:53:40;;;;;;;3.22;2.30;;;19.40;91.00;;;;;;5073566;28;20181;-69
2022/06/16 05:56:08;;;;;;;3.60;2.42;;;19.40;91.20;;;;;;5072413;28;20172;-68
2022/06/16 05:58:35;;;;;;;3.38;2.15;;;19.50;91.20;;;;;;5076626;28;20205;-68
2022/06/16 06:01:02;;;;;;;4.57;2.35;;;19.50;91.20;;;;;;5075330;28;20183;-69
2022/06/16 06:03:28;;;;;;;4.15;2.50;;;19.50;91.30;;;;;;5077061;28;20172;-68
2022/06/16 06:05:58;;;;;;;3.35;2.50;;;19.60;91.50;;;;;;5077046;28;20181;-68
2022/06/16 06:16:44;;;;;;;3.72;2.10;;;19.80;91.20;;;;;;5080887;28;20269;-68
2022/06/16 06:19:27;;;;;;;5.32;2.00;;;19.80;91.10;;;;;;5077929;28;20208;-69
2022/06/16 06:22:25;;;;;;;2.30;1.80;;;19.80;91.00;;;;;;5071811;28;20180;-68
2022/06/16 06:24:54;;;;;;;3.15;1.98;;;19.90;91.10;;;;;;5071140;28;20181;-69
2022/06/16 06:27:19;;;;;;;2.92;1.95;;;19.90;90.90;;;;;;5075398;28;20172;-68
2022/06/16 06:29:49;;;;;;;4.97;1.95;;;20.00;90.80;;;;;;5075385;28;20231;-69
2022/06/16 06:32:19;;;;;;;3.33;2.53;;;20.00;90.70;;;;;;5073152;28;20260;-68
2022/06/16 06:34:45;;;;;;;3.20;2.20;;;20.00;90.70;;;;;;5073600;28;20188;-68
2022/06/16 06:37:12;;;;;;;3.03;2.00;;;20.10;90.90;;;;;;5071103;28;20196;-69
2022/06/16 06:39:38;;;;;;;2.45;2.10;;;20.10;90.80;;;;;;5076082;28;20244;-68
2022/06/16 06:42:04;;;;;;;3.08;2.00;;;20.20;90.90;;;;;;5074652;28;20308;-69
2022/06/16 06:44:35;;;;;;;3.65;2.55;;;20.20;91.00;;;;;;5076249;28;20177;-69
2022/06/16 06:47:01;;;;;;;3.17;2.30;;;20.30;91.20;;;;;;5072873;28;20243;-69
2022/06/16 06:49:27;;;;;;;3.50;2.33;;;20.30;91.00;;;;;;5065201;28;20261;-68
2022/06/16 06:51:53;;;;;;;3.80;2.40;;;20.30;91.00;;;;;;5075887;28;20199;-70
2022/06/16 06:54:22;;;;;;;3.78;2.50;;;20.40;91.00;;;;;;5075800;28;20204;-69
2022/06/16 06:56:53;;;;;;;4.93;2.25;;;20.40;90.80;;;;;;5059990;28;20233;-69
2022/06/16 06:59:19;;;;;;;3.45;1.85;;;20.40;90.80;;;;;;5066976;28;20259;-69
2022/06/16 07:01:50;;;;;;;3.38;1.90;;;20.40;90.60;;;;;;5055956;28;20208;-69
2022/06/16 07:04:19;;;;;;;3.65;1.85;;;20.40;90.20;;;;;;5058968;28;20201;-69
2022/06/16 07:06:50;;;;;;;3.50;2.17;;;20.50;90.20;;;;;;5075671;28;20180;-69
2022/06/16 07:09:19;;;;;;;2.10;1.90;;;20.50;90.10;;;;;;5072011;28;20217;-69
2022/06/16 07:11:45;;;;;;;2.58;2.03;;;20.50;90.20;;;;;;5070665;28;20195;-69
2022/06/16 07:14:14;;;;;;;3.00;2.03;;;20.50;90.10;;;;;;5074033;28;20197;-70
2022/06/16 07:16:40;;;;;;;4.43;2.45;;;20.60;90.20;;;;;;5074769;28;20181;-69
2022/06/16 07:19:06;;;;;;;4.47;2.20;;;20.60;90.30;;;;;;5075681;28;20181;-70
2022/06/16 07:21:32;;;;;;;3.28;1.80;;;20.60;90.30;;;;;;5075615;28;20180;-70
2022/06/16 07:23:58;;;;;;;2.85;2.10;;;20.70;90.40;;;;;;5075695;28;20177;-70
2022/06/16 07:26:26;;;;;;;3.38;2.10;;;20.80;90.50;;;;;;5075731;28;20195;-70
2022/06/16 07:28:52;;;;;;;3.58;2.10;;;20.80;90.50;;;;;;5063604;28;20275;-70
2022/06/16 07:31:20;;;;;;;3.78;2.63;;;20.90;90.40;;;;;;5075304;28;20275;-70
2022/06/16 07:33:48;;;;;;;3.28;2.33;;;20.90;90.40;;;;;;5075860;28;20233;-70
2022/06/16 07:36:14;;;;;;;2.83;2.00;;;21.00;90.30;;;;;;5075535;28;20180;-70
2022/06/16 07:38:39;;;;;;;2.85;2.03;;;21.00;90.30;;;;;;5074047;28;20560;-70
2022/06/16 07:43:49;;;;;;;4.78;2.40;;;21.10;90.20;;;;;;5074336;28;20206;-70
2022/06/16 07:46:17;;;;;;;4.97;2.30;;;21.20;90.20;;;;;;5074300;28;20192;-70
2022/06/16 07:48:42;;;;;;;2.75;2.20;;;21.20;90.10;;;;;;5074594;28;20189;-70
2022/06/16 07:51:10;;;;;;;3.70;2.72;;;21.20;90.10;;;;;;5075141;28;20218;-70
2022/06/16 07:53:38;;;;;;;7.20;2.60;;;21.30;90.10;;;;;;5073755;28;20196;-70
2022/06/16 07:56:06;;;;;;;3.08;2.10;;;21.30;90.00;;;;;;5066991;28;20173;-70
2022/06/16 07:58:32;;;;;;;2.60;2.00;;;21.40;90.10;;;;;;5062837;28;20172;-70
2022/06/16 08:00:59;;;;;;;3.78;2.08;;;21.50;90.10;;;;;;5074635;28;20176;-70
2022/06/16 08:03:28;;;;;;;2.92;2.20;;;21.50;89.90;;;;;;5074531;28;20184;-70
2022/06/16 08:05:58;;;;;;;3.67;1.92;;;21.60;89.70;;;;;;5074862;28;20196;-70
2022/06/16 08:08:25;;;;;;;5.07;2.17;;;21.70;89.40;;;;;;5074080;28;20220;-70
2022/06/16 08:10:54;;;;;;;4.10;1.90;;;21.70;88.90;;;;;;5074818;28;20169;-69
2022/06/16 08:13:26;;;;;;;3.20;2.17;;;21.70;88.60;;;;;;5074744;28;20287;-70
2022/06/16 08:15:54;;;;;;;3.50;2.03;;;21.80;88.20;;;;;;5074532;28;20182;-70
2022/06/16 08:18:24;;;;;;;2.90;2.00;;;21.90;88.10;;;;;;5065615;28;20264;-69
2022/06/16 08:20:51;;;;;;;3.42;2.35;;;21.90;87.50;;;;;;5073883;28;20181;-70
2022/06/16 08:23:18;;;;;;;2.88;1.90;;;21.90;87.20;;;;;;5074367;28;20299;-69
2022/06/16 08:25:45;;;;;;;3.92;2.22;;;22.00;87.40;;;;;;5074090;28;20351;-70
2022/06/16 08:28:14;;;;;;;2.65;1.90;;;22.00;87.20;;;;;;5074188;28;20196;-70
2022/06/16 08:30:44;;;;;;;4.03;2.22;;;22.10;87.10;;;;;;5073917;28;20173;-71
2022/06/16 08:33:16;;;;;;;3.67;2.25;;;22.10;86.70;;;;;;5074246;28;20176;-71
2022/06/16 08:35:44;;;;;;;2.65;1.80;;;22.20;86.30;;;;;;5073953;28;20165;-69
2022/06/16 08:38:13;;;;;;;2.65;1.90;;;22.20;86.20;;;;;;5073245;28;20196;-69
2022/06/16 08:40:47;;;;;;;3.17;2.47;;;22.30;85.70;;;;;;5074053;28;20279;-71
2022/06/16 08:43:28;;;;;;;3.28;1.80;;;22.40;84.80;;;;;;5073847;28;20207;-70
2022/06/16 08:46:00;;;;;;;2.78;1.92;;;22.40;84.70;;;;;;5074147;28;20282;-70
2022/06/16 08:48:49;;;;;;;6.80;1.88;;;22.50;84.70;;;;;;5070661;28;20208;-70
2022/06/16 08:51:26;;;;;;;2.55;1.70;;;22.50;84.70;;;;;;5072722;28;20305;-69
2022/06/16 08:53:57;;;;;;;3.80;1.83;;;22.60;85.00;;;;;;5075593;28;20189;-70
2022/06/16 08:56:37;;;;;;;4.43;2.33;;;22.70;84.70;;;;;;5074209;28;20184;-70
2022/06/16 08:59:19;;;;;;;3.78;2.10;;;22.70;83.50;;;;;;5073829;28;20259;-71
2022/06/16 09:01:55;;;;;;;2.13;1.73;;;22.80;83.30;;;;;;5074085;28;20180;-70
2022/06/16 09:04:30;;;;;;;2.88;2.17;;;22.90;82.90;;;;;;5073552;28;20216;-71
2022/06/16 09:07:17;;;;;;;3.58;2.00;;;22.90;83.00;;;;;;5073731;28;20169;-72
2022/06/16 09:10:16;;;;;;;3.45;2.00;;;23.00;81.90;;;;;;5072645;28;20306;-71
2022/06/16 09:13:02;;;;;;;3.45;1.67;;;23.00;81.30;;;;;;5068570;28;20272;-71
2022/06/16 09:15:53;;;;;;;4.60;1.88;;;23.10;81.00;;;;;;5069127;28;20260;-72
2022/06/16 09:18:31;;;;;;;3.90;1.75;;;23.10;80.70;;;;;;5065911;28;20172;-71
2022/06/16 09:21:12;;;;;;;2.30;1.50;;;23.20;79.30;;;;;;5073894;28;20180;-70
2022/06/16 09:24:05;;;;;;;2.50;1.75;;;23.30;78.90;;;;;;5073275;28;20207;-72
2022/06/16 09:26:34;;;;;;;7.68;2.13;;;23.40;79.20;;;;;;5073467;28;20208;-71
2022/06/16 09:29:14;;;;;;;3.70;1.55;;;23.40;79.70;;;;;;5073241;28;20214;-71
2022/06/16 09:31:51;;;;;;;3.03;1.65;;;23.50;77.70;;;;;;5074682;28;20172;-70
2022/06/16 09:34:38;;;;;;;2.97;1.58;;;23.60;76.80;;;;;;5074278;28;20255;-71
2022/06/16 09:37:17;;;;;;;3.35;1.70;;;23.70;76.50;;;;;;5068780;28;20226;-68
2022/06/16 09:39:53;;;;;;;5.13;1.92;;;23.80;77.40;;;;;;5066924;28;20254;-70
2022/06/16 09:42:35;;;;;;;2.75;1.60;;;23.90;74.90;;;;;;5069392;28;20184;-70
2022/06/16 09:45:19;;;;;;;2.08;1.60;;;23.90;75.90;;;;;;5060772;28;20173;-71
2022/06/16 09:48:13;;;;;;;2.65;1.42;;;24.10;75.00;;;;;;5072959;28;20187;-72
2022/06/16 09:50:50;;;;;;;2.95;1.40;;;24.10;71.00;;;;;;5073053;28;20207;-69
2022/06/16 09:53:22;;;;;;;3.15;1.70;;;24.10;72.80;;;;;;5073189;28;20177;-71
2022/06/16 09:55:53;;;;;;;3.33;1.52;;;24.20;73.60;;;;;;5073452;28;20238;-71
2022/06/16 09:58:34;;;;;;;3.13;1.70;;;24.20;73.30;;;;;;5073380;28;20177;-71
2022/06/16 10:01:06;;;;;;;2.33;1.30;;;24.30;73.00;;;;;;5069198;28;20174;-70
2022/06/16 10:04:07;;;;;;;2.45;1.40;;;24.30;72.80;;;;;;5069032;28;20197;-69
2022/06/16 10:06:48;;;;;;;2.25;1.52;;;24.30;68.80;;;;;;5064427;28;20165;-70
2022/06/16 10:09:36;;;;;;;2.30;1.70;;;24.40;71.00;;;;;;5069548;28;20211;-70
2022/06/16 10:12:10;;;;;;;1.90;1.23;;;24.40;70.50;;;;;;5088795;28;20231;-72
2022/06/16 10:15:07;;;;;;;1.95;1.10;;;24.50;69.00;;;;;;5071927;28;20191;-70
2022/06/16 10:17:34;;;;;;;2.63;1.50;;;24.50;68.30;;;;;;5074714;28;20192;-71
2022/06/16 10:20:01;;;;;;;1.90;1.15;;;24.60;70.30;;;;;;5069514;28;20164;-71
2022/06/16 10:22:30;;;;;;;3.13;1.60;;;24.70;70.80;;;;;;5075712;28;20204;-70
2022/06/16 10:25:23;;;;;;;1.75;1.10;;;24.70;68.30;;;;;;5075332;28;20169;-70
2022/06/16 10:28:06;;;;;;;2.50;1.35;;;24.80;68.20;;;;;;5075771;28;20200;-71
2022/06/16 10:30:40;;;;;;;2.80;1.42;;;24.90;67.50;;;;;;5076054;28;20169;-71
2022/06/16 10:33:17;;;;;;;2.70;1.40;;;24.90;66.20;;;;;;5063539;28;20436;-70
2022/06/16 10:36:12;;;;;;;3.38;1.48;;;25.00;67.20;;;;;;5075233;28;20196;-71
2022/06/16 10:38:45;;;;;;;3.25;1.40;;;25.10;62.50;;;;;;5075178;28;20267;-70
2022/06/16 10:42:47;;;;;;;1.30;1.17;;;25.20;67.10;;;;;;5112858;27;20565;-70
2022/06/16 10:45:22;;;;;;;3.10;1.60;;;25.40;66.00;;;;;;5071579;28;20172;-70
2022/06/16 10:47:55;;;;;;;2.10;1.23;;;25.50;67.00;;;;;;5089850;28;20199;-71
2022/06/16 10:50:25;;;;;;;2.97;1.45;;;25.60;66.00;;;;;;5093543;28;20182;-70
2022/06/16 10:53:00;;;;;;;2.90;1.20;;;25.80;66.50;;;;;;5106896;28;20611;-71
2022/06/16 10:55:29;;;;;;;1.88;1.20;;;25.90;66.40;;;;;;5079291;28;20168;-71
2022/06/16 10:57:58;;;;;;;1.80;1.20;;;26.10;66.20;;;;;;5091356;28;20192;-71
2022/06/16 11:00:28;;;;;;;2.17;1.10;;;26.20;64.50;;;;;;5091345;28;20204;-70
2022/06/16 11:03:26;;;;;;;1.55;0.98;;;26.40;65.40;;;;;;5091432;28;20170;-71
2022/06/16 11:05:58;;;;;;;2.03;1.23;;;26.50;64.60;;;;;;5078909;28;20187;-71
2022/06/16 11:08:34;;;;;;;2.40;1.20;;;26.60;64.90;;;;;;5088811;28;20211;-72
2022/06/16 11:11:01;;;;;;;1.83;1.08;;;26.80;65.20;;;;;;5096539;28;20179;-71
2022/06/16 11:13:45;;;;;;;1.70;0.93;;;26.90;65.00;;;;;;5093760;28;20205;-72
2022/06/16 11:16:24;;;;;;;1.52;1.10;;;27.10;62.90;;;;;;5070535;28;20180;-71
2022/06/16 11:18:53;;;;;;;2.30;1.08;;;27.20;61.80;;;;;;5107675;28;20689;-71
2022/06/16 11:21:23;;;;;;;1.50;1.08;;;27.30;62.20;;;;;;5086699;28;20296;-71
2022/06/16 11:23:54;;;;;;;1.15;0.80;;;27.40;62.00;;;;;;5087842;28;20209;-70
2022/06/16 11:26:28;;;;;;;3.17;0.95;;;27.40;61.70;;;;;;5079517;28;20196;-71
2022/06/16 11:29:01;;;;;;;1.73;0.88;;;27.60;60.10;;;;;;5104235;28;20259;-71
2022/06/16 11:32:14;;;;;;;2.13;1.10;;;27.70;59.80;;;;;;5084724;28;20176;-71
2022/06/16 11:34:42;;;;;;;2.72;0.90;;;27.80;53.90;;;;;;5095943;28;20180;-72
2022/06/16 11:37:07;;;;;;;1.20;0.90;;;27.90;58.00;;;;;;5088915;28;20175;-71
2022/06/16 11:39:54;;;;;;;1.88;1.10;;;28.00;58.50;;;;;;5086611;28;20204;-71
2022/06/16 11:42:35;;;;;;;5.75;1.20;;;28.10;56.20;;;;;;5090292;28;20212;-72
2022/06/16 11:45:19;;;;;;;2.30;1.08;;;28.10;58.00;;;;;;5078445;28;20165;-71
2022/06/16 11:48:05;;;;;;;2.60;1.02;;;28.10;57.70;;;;;;5101881;28;20189;-72
2022/06/16 11:50:33;;;;;;;2.17;1.10;;;28.20;53.90;;;;;;5070122;28;20168;-71
2022/06/16 11:53:20;;;;;;;1.20;0.90;;;28.30;56.10;;;;;;5070470;28;20169;-71
2022/06/16 11:56:06;;;;;;;1.50;0.80;;;28.30;52.90;;;;;;5074954;28;20732;-71
2022/06/16 11:59:09;;;;;;;1.20;0.80;;;28.30;55.00;;;;;;5063448;28;20338;-71
2022/06/16 12:01:44;;;;;;;1.95;1.00;;;28.40;53.50;;;;;;5074100;28;20193;-72
2022/06/16 12:04:32;;;;;;;1.33;0.80;;;28.50;56.40;;;;;;5078839;28;20206;-71
2022/06/16 12:07:51;;;;;;;1.65;0.95;;;28.60;54.70;;;;;;5076169;28;20180;-72
2022/06/16 12:10:31;;;;;;;1.35;0.88;;;28.70;54.60;;;;;;5092733;28;20288;-70
2022/06/16 12:13:09;;;;;;;1.25;0.90;;;28.90;55.40;;;;;;5075773;28;20176;-71
2022/06/16 12:15:38;;;;;;;1.50;0.88;;;29.00;53.90;;;;;;5076527;28;20177;-71
2022/06/16 12:18:11;;;;;;;1.75;0.95;;;29.10;55.10;;;;;;5076989;28;20200;-71
2022/06/16 12:20:54;;;;;;;1.00;0.68;;;29.20;54.70;;;;;;5071074;28;20185;-71
2022/06/16 12:23:34;;;;;;;1.35;0.90;;;29.20;51.60;;;;;;5076539;28;20200;-70
2022/06/16 12:26:34;;;;;;;1.48;0.80;;;29.20;52.40;;;;;;5074534;28;20177;-72
2022/06/16 12:29:05;;;;;;;1.85;0.70;;;29.20;51.10;;;;;;5067501;28;20214;-71
2022/06/16 12:31:42;;;;;;;1.20;0.90;;;29.20;53.10;;;;;;5076369;28;20197;-70
2022/06/16 12:34:11;;;;;;;1.33;0.80;;;29.30;51.70;;;;;;5076606;28;20177;-70
2022/06/16 12:36:42;;;;;;;1.90;0.95;;;29.40;52.20;;;;;;5076142;28;20177;-71
2022/06/16 12:39:18;;;;;;;1.25;0.88;;;29.40;51.10;;;;;;5090082;28;20173;-70
2022/06/16 12:41:51;;;;;;;1.02;0.60;;;29.40;50.40;;;;;;5074172;28;20205;-70
2022/06/16 12:44:38;;;;;;;1.88;0.80;;;29.50;49.10;;;;;;5075976;28;20264;-71
2022/06/16 12:47:31;;;;;;;2.22;0.80;;;29.40;49.20;;;;;;5069306;28;20169;-71
2022/06/16 12:49:59;;;;;;;1.40;1.00;;;29.50;49.30;;;;;;5070327;28;20319;-71
2022/06/16 12:52:32;;;;;;;1.05;0.70;;;29.50;50.00;;;;;;5080156;28;20168;-70
2022/06/16 12:55:04;;;;;;;1.20;0.77;;;29.60;49.60;;;;;;5083725;28;20169;-71
2022/06/16 12:57:38;;;;;;;0.88;0.80;;;29.60;49.10;;;;;;5075071;28;20201;-70
2022/06/16 13:00:16;;;;;;;1.83;0.77;;;29.60;48.50;;;;;;5085699;28;20183;-72
2022/06/16 13:03:14;;;;;;;1.45;0.80;;;29.60;48.10;;;;;;5090776;28;20188;-79
2022/06/16 13:05:42;;;;;;;1.10;0.63;;;29.70;47.40;;;;;;5055350;28;20181;-80
2022/06/16 13:08:09;;;;;;;0.82;0.60;;;29.70;48.60;;;;;;5055917;28;20173;-86
2022/06/16 13:10:43;;;;;;;0.88;0.70;;;29.70;48.60;;;;;;5073802;28;20296;-84
2022/06/16 13:13:21;;;;;;;1.23;0.77;;;29.70;46.70;;;;;;5086398;28;20190;-85
2022/06/16 13:15:56;;;;;;;1.85;1.00;;;29.80;46.60;;;;;;5072565;28;20259;-81
2022/06/16 13:18:30;;;;;;;1.45;0.80;;;29.90;47.80;;;;;;5073964;28;20172;-80
2022/06/16 13:21:03;;;;;;;1.48;0.90;;;30.00;47.80;;;;;;5077054;28;20199;-88
2022/06/16 13:23:35;;;;;;;1.05;0.82;;;30.10;47.70;;;;;;5070408;28;20288;-81
2022/06/16 13:26:07;;;;;;;1.15;0.75;;;30.20;46.60;;;;;;5069746;28;20195;-87
2022/06/16 13:28:39;;;;;;;2.30;0.88;;;30.30;46.50;;;;;;5086348;28;20167;-86
2022/06/16 13:31:40;;;;;;;0.85;0.70;;;30.30;45.70;;;;;;5075879;28;20176;-86
2022/06/16 13:34:11;;;;;;;1.35;0.65;;;30.30;45.10;;;;;;5065679;28;20203;-87
2022/06/16 13:36:40;;;;;;;1.08;0.70;;;30.30;46.00;;;;;;5094735;28;20192;-79
2022/06/16 13:39:08;;;;;;;0.82;0.80;;;30.20;46.00;;;;;;5075267;28;20177;-84
2022/06/16 13:41:34;;;;;;;3.50;1.42;;;30.20;46.10;;;;;;5075246;28;20212;-87
2022/06/16 13:44:11;;;;;;;1.20;1.00;;;30.10;46.50;;;;;;5075315;28;20183;-87